Time;durP1;ratioP1;P1;durP2;ratioP2;P2;SDS_P1;SDS_P2;PMS_P1;PMS_P2;Temp;Humidity;BMP_temperature;BMP_pressure;BME280_temperature;BME280_humidity;BME280_pressure;Samples;Min_cycle;Max_cycle;Signal;HPM_P1;HPM_P2
2022/07/22 00:00:14;;;;;;;13.30;3.13;;;19.10;99.90;;;;;;4983110;28;20198;-76
2022/07/22 00:02:40;;;;;;;9.90;3.50;;;19.10;99.90;;;;;;5016412;28;20040;-76
2022/07/22 00:05:07;;;;;;;16.92;3.58;;;19.20;99.90;;;;;;4998954;28;20037;-76
2022/07/22 00:07:32;;;;;;;10.73;2.95;;;19.20;99.90;;;;;;4999224;28;20052;-76
2022/07/22 00:09:59;;;;;;;13.93;3.35;;;19.10;99.90;;;;;;4999253;28;20042;-76
2022/07/22 00:12:24;;;;;;;13.20;3.30;;;19.20;99.90;;;;;;4982787;28;20340;-76
2022/07/22 00:14:50;;;;;;;17.95;3.83;;;19.10;99.90;;;;;;4998669;28;20042;-77
2022/07/22 00:17:16;;;;;;;13.85;4.30;;;19.00;99.90;;;;;;4998754;28;20053;-76
2022/07/22 00:19:42;;;;;;;13.48;4.15;;;19.00;99.90;;;;;;4999052;28;20034;-76
2022/07/22 00:22:07;;;;;;;15.10;4.05;;;19.00;99.90;;;;;;4998846;28;20085;-76
2022/07/22 00:24:33;;;;;;;14.30;3.88;;;19.00;99.90;;;;;;4998677;28;20054;-76
2022/07/22 00:26:59;;;;;;;17.60;4.20;;;19.10;99.90;;;;;;5016369;28;20124;-76
2022/07/22 00:29:25;;;;;;;18.75;3.63;;;19.20;99.90;;;;;;5016372;28;20089;-76
2022/07/22 00:31:50;;;;;;;16.98;3.53;;;19.30;99.90;;;;;;5002366;28;20112;-76
2022/07/22 00:34:16;;;;;;;12.73;3.65;;;19.30;99.90;;;;;;5019773;28;20042;-76
2022/07/22 00:36:42;;;;;;;16.48;3.42;;;19.10;99.90;;;;;;5019665;28;20080;-76
2022/07/22 00:39:08;;;;;;;11.27;3.13;;;19.20;99.90;;;;;;5002405;28;20437;-76
2022/07/22 00:41:33;;;;;;;16.33;3.78;;;19.00;99.90;;;;;;5019124;28;20046;-76
2022/07/22 00:44:02;;;;;;;16.80;2.88;;;18.80;99.90;;;;;;5002225;28;20045;-77
2022/07/22 00:46:29;;;;;;;13.27;2.97;;;18.90;99.90;;;;;;5019448;28;20046;-76
2022/07/22 00:48:56;;;;;;;17.33;3.20;;;18.90;99.90;;;;;;5002234;28;20135;-76
2022/07/22 00:51:23;;;;;;;8.65;2.45;;;18.80;99.90;;;;;;5002018;28;20373;-76
2022/07/22 00:53:49;;;;;;;11.13;2.70;;;18.70;99.90;;;;;;5019450;28;20038;-75
2022/07/22 00:56:17;;;;;;;8.50;2.15;;;18.70;99.90;;;;;;5002191;28;20144;-76
2022/07/22 00:58:44;;;;;;;11.90;1.98;;;18.80;99.90;;;;;;5001693;28;20121;-76
2022/07/22 01:01:10;;;;;;;15.15;2.45;;;18.70;99.90;;;;;;5019184;28;20044;-76
2022/07/22 01:03:36;;;;;;;11.80;2.22;;;18.90;99.90;;;;;;5019347;28;20034;-76
2022/07/22 01:06:02;;;;;;;7.72;1.80;;;18.90;99.90;;;;;;5019360;28;20041;-75
2022/07/22 01:08:28;;;;;;;9.40;1.95;;;18.70;99.90;;;;;;5019064;28;20069;-76
2022/07/22 01:10:53;;;;;;;12.02;2.03;;;18.70;99.90;;;;;;5018763;28;20084;-76
2022/07/22 01:13:19;;;;;;;8.40;2.33;;;18.80;99.90;;;;;;5001432;28;20065;-76
2022/07/22 01:15:45;;;;;;;13.73;2.38;;;18.60;99.90;;;;;;5001374;28;20038;-76
2022/07/22 01:18:10;;;;;;;10.10;2.20;;;18.60;99.90;;;;;;5001711;28;20046;-76
2022/07/22 01:20:36;;;;;;;9.43;2.20;;;18.50;99.90;;;;;;5018870;28;20041;-76
2022/07/22 01:23:02;;;;;;;8.00;1.90;;;18.60;99.90;;;;;;5001778;28;20089;-76
2022/07/22 01:25:28;;;;;;;11.07;2.33;;;18.70;99.90;;;;;;5018879;28;20327;-76
2022/07/22 01:27:55;;;;;;;11.75;2.58;;;18.80;99.90;;;;;;5001309;28;20466;-76
2022/07/22 01:30:20;;;;;;;7.00;1.92;;;18.70;99.90;;;;;;5033850;28;20439;-76
2022/07/22 01:32:46;;;;;;;9.00;2.20;;;18.70;99.90;;;;;;5018931;28;20068;-76
2022/07/22 01:35:12;;;;;;;9.30;2.17;;;18.70;99.90;;;;;;5018574;28;20335;-76
2022/07/22 01:37:37;;;;;;;7.45;2.08;;;18.80;99.90;;;;;;5018786;28;20073;-76
2022/07/22 01:40:04;;;;;;;8.93;2.08;;;18.90;99.90;;;;;;5000941;28;20049;-76
2022/07/22 01:42:30;;;;;;;8.77;2.05;;;19.00;99.90;;;;;;5000737;28;20083;-76
2022/07/22 01:44:55;;;;;;;12.10;2.00;;;19.00;99.90;;;;;;5018264;28;20052;-76
2022/07/22 01:47:21;;;;;;;10.98;2.00;;;19.00;99.90;;;;;;5018446;28;20046;-77
2022/07/22 01:49:47;;;;;;;10.10;1.70;;;19.00;99.90;;;;;;5018432;28;20053;-76
2022/07/22 01:52:13;;;;;;;4.80;1.52;;;19.00;99.90;;;;;;5018297;28;20427;-76
2022/07/22 01:54:38;;;;;;;8.98;1.45;;;18.90;99.90;;;;;;5001035;28;20046;-76
2022/07/22 01:57:04;;;;;;;11.40;1.85;;;18.80;99.90;;;;;;5000805;28;20041;-77
2022/07/22 01:59:30;;;;;;;9.15;1.70;;;18.80;99.90;;;;;;5000847;28;20037;-76
2022/07/22 02:01:55;;;;;;;7.72;2.08;;;18.80;99.90;;;;;;5017944;28;20064;-76
2022/07/22 02:04:21;;;;;;;8.43;1.75;;;18.90;99.90;;;;;;5000857;28;20077;-76
2022/07/22 02:06:46;;;;;;;9.38;1.60;;;18.90;99.90;;;;;;5000540;28;20081;-76
2022/07/22 02:09:13;;;;;;;9.25;1.85;;;18.80;99.90;;;;;;5000739;28;20077;-76
2022/07/22 02:11:38;;;;;;;5.88;1.58;;;18.90;99.90;;;;;;4999964;28;20038;-76
2022/07/22 02:14:04;;;;;;;8.95;1.70;;;18.80;99.90;;;;;;5018016;28;20042;-76
2022/07/22 02:16:30;;;;;;;7.93;1.48;;;18.80;99.90;;;;;;5017997;28;20125;-76
2022/07/22 02:18:56;;;;;;;10.20;1.58;;;18.90;99.90;;;;;;5000571;28;20061;-76
2022/07/22 02:21:22;;;;;;;10.23;1.90;;;18.90;99.90;;;;;;5000606;28;20398;-76
2022/07/22 02:23:47;;;;;;;9.70;1.95;;;18.90;99.90;;;;;;5000552;28;20045;-76
2022/07/22 02:26:13;;;;;;;13.15;2.22;;;18.90;99.90;;;;;;4984021;28;20053;-77
2022/07/22 02:28:39;;;;;;;11.02;1.77;;;18.90;99.90;;;;;;5017534;28;20089;-76
2022/07/22 02:31:07;;;;;;;6.38;1.48;;;18.70;99.90;;;;;;5017680;28;20048;-76
2022/07/22 02:33:32;;;;;;;8.90;1.95;;;18.70;99.90;;;;;;4999958;28;20415;-76
2022/07/22 02:35:58;;;;;;;8.20;1.35;;;18.80;99.90;;;;;;5017583;28;20049;-76
2022/07/22 02:38:24;;;;;;;9.30;2.17;;;18.70;99.90;;;;;;4999860;28;20037;-76
2022/07/22 02:40:49;;;;;;;6.15;1.38;;;18.70;99.90;;;;;;4999495;28;20045;-77
2022/07/22 02:43:15;;;;;;;8.15;1.50;;;18.80;99.90;;;;;;5000207;28;20045;-76
2022/07/22 02:45:41;;;;;;;6.63;1.80;;;18.80;99.90;;;;;;5017513;28;20141;-76
2022/07/22 02:48:06;;;;;;;12.98;1.98;;;18.80;99.90;;;;;;4999922;28;20411;-76
2022/07/22 02:50:36;;;;;;;9.32;1.80;;;18.80;99.90;;;;;;4999786;28;20054;-76
2022/07/22 02:53:02;;;;;;;7.03;2.05;;;18.80;99.90;;;;;;5017102;28;20077;-76
2022/07/22 02:55:27;;;;;;;6.50;1.67;;;18.90;99.90;;;;;;4999677;28;20034;-75
2022/07/22 02:57:53;;;;;;;8.07;1.98;;;18.70;99.90;;;;;;5000056;28;20041;-76
2022/07/22 03:00:19;;;;;;;6.38;1.48;;;18.60;99.90;;;;;;5017088;28;20413;-76
2022/07/22 03:02:45;;;;;;;13.20;2.00;;;18.70;99.90;;;;;;5017272;28;20450;-76
2022/07/22 03:05:10;;;;;;;10.05;2.00;;;18.80;99.90;;;;;;5016986;28;20038;-76
2022/07/22 03:07:36;;;;;;;5.47;1.50;;;18.90;99.90;;;;;;4999571;28;20073;-76
2022/07/22 03:10:03;;;;;;;4.63;1.30;;;19.00;99.90;;;;;;4983261;28;20050;-76
2022/07/22 03:12:29;;;;;;;5.80;1.60;;;19.00;99.90;;;;;;5015442;28;20073;-76
2022/07/22 03:14:55;;;;;;;6.65;1.52;;;18.80;99.90;;;;;;4999825;28;20102;-76
2022/07/22 03:17:20;;;;;;;5.65;1.40;;;18.70;99.90;;;;;;4999651;28;20049;-76
2022/07/22 03:19:46;;;;;;;3.33;1.20;;;18.60;99.90;;;;;;4983280;28;20411;-76
2022/07/22 03:22:11;;;;;;;4.97;1.58;;;18.70;99.90;;;;;;5016718;28;20092;-76
2022/07/22 03:24:37;;;;;;;3.78;1.05;;;18.70;99.90;;;;;;5017106;28;20099;-76
2022/07/22 03:27:03;;;;;;;7.20;1.58;;;18.60;99.90;;;;;;5016567;28;20091;-76
2022/07/22 03:29:28;;;;;;;4.15;1.23;;;18.70;99.90;;;;;;5016500;28;20068;-75
2022/07/22 03:31:54;;;;;;;6.43;1.50;;;18.70;99.90;;;;;;5016794;28;20053;-75
2022/07/22 03:34:20;;;;;;;5.60;1.27;;;18.70;99.90;;;;;;4999107;28;20057;-75
2022/07/22 03:36:45;;;;;;;8.10;1.50;;;18.70;99.90;;;;;;5016658;28;20037;-76
2022/07/22 03:39:11;;;;;;;6.28;1.50;;;18.70;99.90;;;;;;5016629;28;20044;-76
2022/07/22 03:41:37;;;;;;;4.95;1.10;;;18.70;99.90;;;;;;4999068;28;20161;-76
2022/07/22 03:44:02;;;;;;;4.68;1.30;;;18.70;99.90;;;;;;4999327;28;20096;-76
2022/07/22 03:46:28;;;;;;;8.10;1.23;;;18.70;99.90;;;;;;5016776;28;20338;-76
2022/07/22 03:48:54;;;;;;;10.70;1.67;;;18.50;99.90;;;;;;4999198;28;20398;-75
2022/07/22 03:51:19;;;;;;;4.03;1.35;;;18.60;99.90;;;;;;5016577;28;20419;-75
2022/07/22 03:53:45;;;;;;;9.52;1.48;;;18.60;99.90;;;;;;4999284;28;20327;-75
2022/07/22 03:56:11;;;;;;;7.57;1.35;;;18.60;99.90;;;;;;4999046;28;20042;-75
2022/07/22 03:58:37;;;;;;;7.43;1.50;;;18.60;99.90;;;;;;5031919;28;20092;-75
2022/07/22 04:01:02;;;;;;;6.57;1.38;;;18.60;99.90;;;;;;5016440;28;20107;-75
2022/07/22 04:03:28;;;;;;;7.07;1.85;;;18.70;99.90;;;;;;4999784;28;20034;-75
2022/07/22 04:05:53;;;;;;;6.32;1.45;;;18.80;99.90;;;;;;5003049;28;20054;-75
2022/07/22 04:08:19;;;;;;;6.60;1.95;;;18.80;99.90;;;;;;5002713;28;20180;-77
2022/07/22 04:10:45;;;;;;;6.93;1.60;;;18.80;99.90;;;;;;4986183;28;20052;-76
2022/07/22 04:13:11;;;;;;;8.35;1.40;;;18.90;99.90;;;;;;5002579;28;20041;-75
2022/07/22 04:15:36;;;;;;;5.82;1.50;;;18.90;99.90;;;;;;5002581;28;20164;-75
2022/07/22 04:18:02;;;;;;;7.72;1.90;;;18.80;99.90;;;;;;4970481;28;20034;-76
2022/07/22 04:20:28;;;;;;;12.02;1.77;;;18.80;99.90;;;;;;5020150;28;20042;-75
2022/07/22 04:22:54;;;;;;;8.80;2.03;;;18.80;99.90;;;;;;5002433;28;20124;-76
2022/07/22 04:25:19;;;;;;;6.95;1.48;;;18.80;99.90;;;;;;5020098;28;20069;-75
2022/07/22 04:27:45;;;;;;;8.02;1.58;;;18.60;99.90;;;;;;5018918;28;20096;-76
2022/07/22 04:30:11;;;;;;;8.88;1.95;;;18.70;99.90;;;;;;5002241;28;20054;-76
2022/07/22 04:32:37;;;;;;;7.50;1.30;;;18.80;99.90;;;;;;5020056;28;20038;-75
2022/07/22 04:35:04;;;;;;;6.25;1.40;;;18.80;99.90;;;;;;5002272;28;20382;-76
2022/07/22 04:37:30;;;;;;;7.88;1.50;;;18.90;99.90;;;;;;5002524;28;20037;-76
2022/07/22 04:39:56;;;;;;;7.80;1.60;;;18.90;99.90;;;;;;5019661;28;20121;-76
2022/07/22 04:42:22;;;;;;;7.32;1.45;;;18.90;99.90;;;;;;5019437;28;20403;-75
2022/07/22 04:44:47;;;;;;;7.30;1.40;;;18.90;99.90;;;;;;5002252;28;20128;-75
2022/07/22 04:47:13;;;;;;;6.88;1.40;;;18.80;99.90;;;;;;4986046;28;20072;-75
2022/07/22 04:49:39;;;;;;;10.82;1.80;;;18.70;99.90;;;;;;5035082;28;20046;-75
2022/07/22 04:52:05;;;;;;;3.67;1.20;;;18.70;99.90;;;;;;5019659;28;20419;-76
2022/07/22 04:54:30;;;;;;;8.10;1.40;;;18.60;99.90;;;;;;5001791;28;20441;-75
2022/07/22 04:56:56;;;;;;;11.65;1.63;;;18.60;99.90;;;;;;4985812;28;20038;-75
2022/07/22 04:59:22;;;;;;;7.90;1.42;;;18.60;99.90;;;;;;5001940;28;20044;-75
2022/07/22 05:01:47;;;;;;;4.80;1.30;;;18.70;99.90;;;;;;5019138;28;20053;-75
2022/07/22 05:04:13;;;;;;;7.07;1.65;;;18.70;99.90;;;;;;4985839;28;20079;-75
2022/07/22 05:06:39;;;;;;;4.72;0.82;;;18.70;99.90;;;;;;5001805;28;20053;-75
2022/07/22 05:09:04;;;;;;;9.23;1.70;;;18.80;99.90;;;;;;5001729;28;20077;-75
2022/07/22 05:11:30;;;;;;;6.68;1.33;;;18.90;99.90;;;;;;5001429;28;20042;-75
2022/07/22 05:13:56;;;;;;;7.38;1.20;;;19.00;99.90;;;;;;5019124;28;20335;-75
2022/07/22 05:16:21;;;;;;;4.03;1.38;;;19.00;99.90;;;;;;5001119;28;20042;-76
2022/07/22 05:18:47;;;;;;;6.72;1.30;;;19.00;99.90;;;;;;5001881;28;20046;-75
2022/07/22 05:21:12;;;;;;;5.72;1.50;;;18.80;99.90;;;;;;5001466;28;20045;-76
2022/07/22 05:23:38;;;;;;;5.47;1.40;;;18.70;99.90;;;;;;5001577;28;20124;-75
2022/07/22 05:26:05;;;;;;;6.50;1.23;;;18.70;99.90;;;;;;5001633;28;20053;-76
2022/07/22 05:28:30;;;;;;;7.75;1.27;;;18.70;99.90;;;;;;5001400;28;20058;-76
2022/07/22 05:30:56;;;;;;;6.32;1.35;;;18.50;99.90;;;;;;5001566;28;20320;-75
2022/07/22 05:33:22;;;;;;;11.95;1.58;;;18.40;99.90;;;;;;5001494;28;20042;-75
2022/07/22 05:35:47;;;;;;;6.57;1.23;;;18.50;99.90;;;;;;5001082;28;20081;-75
2022/07/22 05:38:14;;;;;;;7.63;1.23;;;18.70;99.90;;;;;;4985111;28;20043;-76
2022/07/22 05:40:39;;;;;;;10.68;1.45;;;18.80;99.90;;;;;;5018169;28;20042;-76
2022/07/22 05:43:05;;;;;;;4.95;1.20;;;18.90;99.90;;;;;;5001136;28;20072;-75
2022/07/22 05:45:31;;;;;;;8.10;1.10;;;19.00;99.90;;;;;;5018513;28;20049;-75
2022/07/22 05:47:56;;;;;;;8.52;1.20;;;19.10;99.90;;;;;;5018249;28;20041;-75
2022/07/22 05:50:22;;;;;;;4.30;1.02;;;19.00;99.90;;;;;;5018411;28;20044;-75
2022/07/22 05:52:48;;;;;;;6.90;1.42;;;19.00;99.90;;;;;;5001020;28;20466;-75
2022/07/22 05:55:13;;;;;;;8.20;1.35;;;19.00;99.90;;;;;;5017979;28;20053;-75
2022/07/22 05:57:39;;;;;;;5.20;1.65;;;19.10;99.90;;;;;;5001232;28;20334;-75
2022/07/22 06:00:06;;;;;;;3.95;1.00;;;19.00;99.90;;;;;;5000832;28;20080;-76
2022/07/22 06:02:32;;;;;;;7.75;1.45;;;19.20;99.90;;;;;;5000794;28;20069;-75
2022/07/22 06:05:00;;;;;;;5.43;1.40;;;19.20;99.90;;;;;;5000551;28;20084;-75
2022/07/22 06:07:26;;;;;;;7.63;1.40;;;19.20;99.90;;;;;;5001137;28;20124;-76
2022/07/22 06:09:52;;;;;;;8.02;1.20;;;19.00;99.90;;;;;;5017079;28;20053;-75
2022/07/22 06:12:18;;;;;;;5.95;1.10;;;19.10;99.90;;;;;;5000012;28;20433;-76
2022/07/22 06:14:44;;;;;;;8.25;1.40;;;19.20;99.90;;;;;;5000401;28;20350;-75
2022/07/22 06:17:10;;;;;;;2.55;1.10;;;19.20;99.90;;;;;;5017900;28;20026;-75
2022/07/22 06:19:35;;;;;;;4.00;1.35;;;19.10;99.90;;;;;;5000449;28;20385;-76
2022/07/22 06:22:01;;;;;;;8.38;1.40;;;19.20;99.90;;;;;;5000313;28;20084;-75
2022/07/22 06:24:27;;;;;;;5.32;1.83;;;19.30;99.90;;;;;;5000461;28;20041;-75
2022/07/22 06:26:53;;;;;;;6.28;1.35;;;19.40;99.90;;;;;;5015866;28;20057;-76
2022/07/22 06:29:18;;;;;;;6.53;1.40;;;19.50;99.90;;;;;;4999915;28;20054;-75
2022/07/22 06:31:44;;;;;;;8.07;1.48;;;19.50;99.90;;;;;;5017465;28;20053;-76
2022/07/22 06:34:10;;;;;;;7.72;1.33;;;19.40;99.90;;;;;;5017716;28;20127;-77
2022/07/22 06:36:35;;;;;;;7.07;1.20;;;19.40;99.90;;;;;;4999994;28;20316;-76
2022/07/22 06:39:01;;;;;;;6.10;1.02;;;19.40;99.90;;;;;;4983870;28;20042;-76
2022/07/22 06:41:27;;;;;;;4.20;1.00;;;19.40;99.90;;;;;;5017179;28;20034;-75
2022/07/22 06:43:52;;;;;;;8.75;1.00;;;19.40;99.90;;;;;;5000205;28;20052;-75
2022/07/22 06:46:18;;;;;;;5.25;1.27;;;19.40;99.90;;;;;;4999996;28;20038;-75
2022/07/22 06:48:44;;;;;;;9.25;1.20;;;19.60;99.90;;;;;;5000017;28;20161;-75
2022/07/22 06:51:10;;;;;;;7.35;1.27;;;19.70;99.90;;;;;;4999900;28;20037;-75
2022/07/22 06:53:35;;;;;;;5.38;1.15;;;19.80;99.90;;;;;;4983661;28;20042;-75
2022/07/22 06:56:01;;;;;;;4.80;1.20;;;19.80;99.90;;;;;;5017335;28;20048;-75
2022/07/22 06:58:27;;;;;;;5.18;1.25;;;20.00;99.90;;;;;;5016072;28;20044;-75
2022/07/22 07:00:52;;;;;;;8.70;1.20;;;19.80;99.90;;;;;;4999915;28;20037;-76
2022/07/22 07:03:18;;;;;;;10.38;1.58;;;20.00;99.90;;;;;;5016948;28;20038;-76
2022/07/22 07:05:45;;;;;;;4.22;1.00;;;20.10;99.90;;;;;;5000030;28;20153;-76
2022/07/22 07:08:11;;;;;;;6.40;1.05;;;20.00;99.90;;;;;;5017037;28;20115;-76
2022/07/22 07:10:36;;;;;;;6.10;1.30;;;19.90;99.90;;;;;;4999655;28;20418;-76
2022/07/22 07:13:02;;;;;;;5.43;1.25;;;19.80;99.90;;;;;;4999418;28;20462;-75
2022/07/22 07:15:28;;;;;;;7.72;1.42;;;19.60;99.90;;;;;;4999473;28;20046;-76
2022/07/22 07:17:56;;;;;;;8.07;1.35;;;19.50;99.90;;;;;;4999575;28;20049;-75
2022/07/22 07:20:22;;;;;;;4.38;1.08;;;19.60;99.90;;;;;;4983429;28;20037;-76
2022/07/22 07:22:48;;;;;;;4.35;1.10;;;19.70;99.90;;;;;;5016688;28;20034;-76
2022/07/22 07:25:14;;;;;;;6.20;1.00;;;19.70;99.90;;;;;;4999422;28;20042;-76
2022/07/22 07:27:40;;;;;;;5.13;1.00;;;19.80;99.90;;;;;;5016847;28;20037;-75
2022/07/22 07:30:08;;;;;;;6.60;1.05;;;19.70;99.90;;;;;;5016588;28;20056;-76
2022/07/22 07:32:34;;;;;;;4.90;1.30;;;19.80;99.90;;;;;;5016714;28;20041;-76
2022/07/22 07:35:01;;;;;;;3.83;0.93;;;19.90;99.90;;;;;;5015425;28;20423;-76
2022/07/22 07:37:26;;;;;;;5.03;1.02;;;20.10;99.90;;;;;;4999742;28;20046;-77
2022/07/22 07:39:52;;;;;;;7.20;0.93;;;20.00;99.90;;;;;;5005123;28;20038;-76
2022/07/22 07:42:18;;;;;;;4.47;0.77;;;19.70;99.90;;;;;;5022703;28;20492;-76
2022/07/22 07:44:44;;;;;;;9.18;1.15;;;19.50;99.90;;;;;;5005632;28;20073;-76
2022/07/22 07:47:09;;;;;;;7.93;1.10;;;19.60;99.90;;;;;;5005670;28;20046;-76
2022/07/22 07:49:35;;;;;;;4.68;1.13;;;19.70;99.90;;;;;;5023148;28;20045;-75
2022/07/22 07:52:01;;;;;;;5.78;1.10;;;19.60;99.90;;;;;;5005685;28;20038;-76
2022/07/22 07:54:26;;;;;;;8.38;1.75;;;19.60;99.90;;;;;;5005494;28;20046;-75
2022/07/22 07:56:52;;;;;;;8.73;1.50;;;19.60;99.90;;;;;;5022976;28;20049;-75
2022/07/22 07:59:18;;;;;;;7.40;1.40;;;19.70;99.90;;;;;;5005942;28;20050;-75
2022/07/22 08:01:44;;;;;;;10.57;1.23;;;19.80;99.90;;;;;;5022847;28;20076;-75
2022/07/22 08:04:09;;;;;;;6.70;1.10;;;19.90;99.90;;;;;;5022860;28;20045;-76
2022/07/22 08:06:35;;;;;;;4.80;0.88;;;19.90;99.90;;;;;;5005359;28;20042;-76
2022/07/22 08:09:00;;;;;;;4.65;0.80;;;19.80;99.90;;;;;;5023065;28;20046;-76
2022/07/22 08:11:26;;;;;;;9.93;1.52;;;19.90;99.90;;;;;;5005155;28;20123;-76
2022/07/22 08:13:52;;;;;;;5.95;1.10;;;19.70;99.90;;;;;;5022691;28;20071;-75
2022/07/22 08:16:18;;;;;;;3.97;1.08;;;19.60;99.90;;;;;;4989381;28;20042;-75
2022/07/22 08:18:43;;;;;;;9.52;1.45;;;19.40;99.90;;;;;;5005418;28;20080;-76
2022/07/22 08:21:09;;;;;;;3.33;0.80;;;19.40;99.90;;;;;;5023059;28;20040;-75
2022/07/22 08:23:35;;;;;;;6.10;1.30;;;19.50;99.90;;;;;;5005353;28;20041;-76
2022/07/22 08:26:00;;;;;;;12.98;1.60;;;19.70;99.90;;;;;;5022920;28;20081;-75
2022/07/22 08:28:26;;;;;;;4.18;1.10;;;19.50;99.90;;;;;;5005222;28;20073;-76
2022/07/22 08:30:52;;;;;;;9.23;1.15;;;19.70;99.90;;;;;;4989378;28;20427;-76
2022/07/22 08:33:19;;;;;;;4.70;1.20;;;19.70;99.90;;;;;;5005128;28;20041;-76
2022/07/22 08:35:44;;;;;;;6.32;1.20;;;19.90;99.90;;;;;;5022722;28;20046;-76
2022/07/22 08:38:10;;;;;;;6.88;1.20;;;19.90;99.90;;;;;;5022547;28;20132;-76
2022/07/22 08:40:36;;;;;;;5.90;1.90;;;20.00;99.90;;;;;;5005252;28;20092;-76
2022/07/22 08:43:03;;;;;;;8.57;1.05;;;20.10;99.90;;;;;;5022136;28;20335;-76
2022/07/22 08:45:30;;;;;;;6.53;1.00;;;20.10;99.90;;;;;;5022482;28;20065;-75
2022/07/22 08:47:56;;;;;;;5.47;1.40;;;19.90;99.90;;;;;;5005202;28;20041;-76
2022/07/22 08:50:22;;;;;;;8.15;1.00;;;19.90;99.90;;;;;;5003046;28;20042;-76
2022/07/22 08:52:48;;;;;;;6.25;1.00;;;19.70;99.90;;;;;;5002276;28;20089;-75
2022/07/22 08:55:14;;;;;;;5.78;0.98;;;19.60;99.90;;;;;;5019513;28;20440;-76
2022/07/22 08:57:47;;;;;;;9.07;1.23;;;19.60;99.90;;;;;;5001881;28;20045;-75
2022/07/22 09:00:20;;;;;;;5.82;0.90;;;19.60;99.90;;;;;;4986066;28;20038;-75
2022/07/22 09:02:46;;;;;;;4.07;0.80;;;19.70;99.90;;;;;;5019072;28;20435;-75
2022/07/22 09:05:14;;;;;;;4.90;0.80;;;19.80;99.90;;;;;;5019397;28;20069;-76
2022/07/22 09:07:42;;;;;;;6.10;0.85;;;19.80;99.90;;;;;;5002052;28;20050;-75
2022/07/22 09:10:11;;;;;;;5.35;1.15;;;19.90;99.90;;;;;;5001768;28;20458;-76
2022/07/22 09:12:53;;;;;;;5.90;0.98;;;19.90;99.90;;;;;;5018657;28;20193;-75
2022/07/22 09:15:31;;;;;;;7.70;1.25;;;19.80;99.90;;;;;;5034414;28;20119;-76
2022/07/22 09:17:59;;;;;;;7.30;1.30;;;19.80;99.90;;;;;;5019252;28;20038;-75
2022/07/22 09:20:26;;;;;;;7.43;0.93;;;19.70;99.90;;;;;;5001727;28;20041;-75
2022/07/22 09:22:52;;;;;;;6.47;1.10;;;19.80;99.90;;;;;;5001563;28;20038;-77
2022/07/22 09:25:31;;;;;;;5.45;1.00;;;19.80;99.90;;;;;;5034218;28;20048;-76
2022/07/22 09:28:06;;;;;;;8.48;0.80;;;19.70;99.90;;;;;;4985040;28;20053;-75
2022/07/22 09:30:35;;;;;;;7.07;0.80;;;19.70;99.90;;;;;;5001267;28;20058;-75
2022/07/22 09:33:02;;;;;;;5.13;1.15;;;19.70;99.90;;;;;;5018634;28;20045;-76
2022/07/22 09:35:28;;;;;;;5.72;0.80;;;19.90;99.90;;;;;;5018656;28;20049;-75
2022/07/22 09:37:54;;;;;;;6.05;0.60;;;19.80;99.90;;;;;;5033880;28;20041;-76
2022/07/22 09:40:25;;;;;;;9.57;0.73;;;19.90;99.90;;;;;;5001144;28;20034;-76
2022/07/22 09:42:57;;;;;;;5.78;1.17;;;20.00;99.90;;;;;;5018275;28;20048;-76
2022/07/22 09:45:26;;;;;;;4.80;0.75;;;20.20;99.90;;;;;;5018257;28;20042;-76
2022/07/22 09:47:55;;;;;;;3.28;0.70;;;20.50;99.90;;;;;;5018426;28;20038;-75
2022/07/22 09:50:40;;;;;;;4.93;0.60;;;20.30;99.90;;;;;;5000795;28;20125;-76
2022/07/22 09:53:06;;;;;;;4.57;0.70;;;20.40;99.90;;;;;;5018570;28;20084;-75
2022/07/22 09:55:33;;;;;;;6.07;1.00;;;20.50;99.90;;;;;;5000812;28;20081;-75
2022/07/22 09:57:59;;;;;;;4.43;0.60;;;20.50;99.90;;;;;;5018152;28;20042;-76
2022/07/22 10:00:27;;;;;;;5.13;0.82;;;20.70;99.90;;;;;;5018235;28;20056;-75
2022/07/22 10:02:59;;;;;;;2.33;0.70;;;20.90;99.90;;;;;;5017958;28;20038;-76
2022/07/22 10:05:28;;;;;;;5.80;0.70;;;21.20;99.90;;;;;;5018331;28;20041;-75
2022/07/22 10:07:54;;;;;;;3.70;0.52;;;21.20;99.90;;;;;;5018003;28;20041;-75
2022/07/22 10:10:23;;;;;;;3.97;0.65;;;21.10;99.90;;;;;;5017980;28;20049;-75
2022/07/22 10:12:51;;;;;;;6.93;1.00;;;20.80;99.90;;;;;;5017406;28;20034;-75
2022/07/22 10:15:17;;;;;;;7.78;1.30;;;20.80;99.90;;;;;;5017917;28;20041;-76
2022/07/22 10:17:48;;;;;;;6.72;0.80;;;20.60;99.90;;;;;;5017713;28;20042;-76
2022/07/22 10:20:19;;;;;;;2.47;0.60;;;20.80;99.90;;;;;;5017680;28;20056;-76
2022/07/22 10:23:05;;;;;;;5.43;1.25;;;20.90;99.90;;;;;;5017905;28;20033;-76
2022/07/22 10:25:49;;;;;;;3.72;0.90;;;21.20;99.90;;;;;;5000211;28;20052;-76
2022/07/22 10:28:26;;;;;;;4.00;0.50;;;21.20;99.90;;;;;;4999976;28;20700;-76
2022/07/22 10:30:52;;;;;;;5.13;0.52;;;21.40;99.90;;;;;;4984252;28;20132;-76
2022/07/22 10:33:20;;;;;;;3.35;0.47;;;21.40;99.90;;;;;;5000080;28;20056;-76
2022/07/22 10:35:53;;;;;;;3.58;0.60;;;21.30;99.90;;;;;;5017390;28;20450;-75
2022/07/22 10:38:21;;;;;;;4.68;0.52;;;21.10;99.90;;;;;;5016381;28;20046;-76
2022/07/22 10:40:54;;;;;;;2.28;0.50;;;21.00;99.90;;;;;;5032914;28;20042;-76
2022/07/22 10:43:28;;;;;;;1.77;0.60;;;21.00;99.90;;;;;;5000212;28;20042;-76
2022/07/22 10:45:57;;;;;;;2.50;0.57;;;21.00;99.90;;;;;;5000056;28;20124;-75
2022/07/22 10:48:25;;;;;;;2.67;0.65;;;21.00;99.80;;;;;;5000138;28;20106;-76
2022/07/22 10:50:55;;;;;;;1.90;0.70;;;21.20;99.90;;;;;;4999915;28;20045;-76
2022/07/22 10:53:43;;;;;;;3.67;0.43;;;21.40;99.90;;;;;;5017283;28;20115;-75
2022/07/22 10:56:27;;;;;;;2.88;0.68;;;21.50;99.90;;;;;;5015951;28;20042;-75
2022/07/22 10:58:58;;;;;;;4.95;0.55;;;21.60;99.90;;;;;;5017808;28;20033;-74
2022/07/22 11:01:30;;;;;;;4.07;0.70;;;21.40;99.90;;;;;;5000114;28;20407;-76
2022/07/22 11:04:06;;;;;;;5.63;0.73;;;21.00;99.90;;;;;;5017175;28;20080;-76
2022/07/22 11:06:32;;;;;;;;;;;20.90;99.90;;;;;;5001844;28;20038;-75
2022/07/22 11:09:00;;;;;;;3.27;0.70;;;21.10;99.90;;;;;;5017043;28;19921;-75
2022/07/22 11:11:43;;;;;;;1.92;0.50;;;21.10;99.90;;;;;;5016686;28;20454;-75
2022/07/22 11:14:27;;;;;;;2.55;0.60;;;21.40;99.90;;;;;;4998809;28;20049;-76
2022/07/22 11:17:05;;;;;;;6.47;0.70;;;21.40;99.90;;;;;;4999813;28;20046;-76
2022/07/22 11:19:32;;;;;;;5.22;0.70;;;21.20;99.90;;;;;;5016927;28;20038;-76
2022/07/22 11:22:02;;;;;;;1.95;0.47;;;21.10;99.90;;;;;;5016967;28;20124;-75
2022/07/22 11:24:28;;;;;;;3.03;0.57;;;21.00;99.90;;;;;;4999387;28;20125;-75
2022/07/22 11:26:55;;;;;;;5.38;0.65;;;20.90;99.90;;;;;;4999337;28;20520;-76
2022/07/22 11:29:35;;;;;;;2.75;0.60;;;20.90;99.90;;;;;;4999291;28;20153;-75
2022/07/22 11:32:05;;;;;;;2.40;0.60;;;20.80;99.90;;;;;;5016572;28;20366;-76
2022/07/22 11:34:31;;;;;;;4.18;0.80;;;20.80;99.90;;;;;;4999283;28;20327;-75
2022/07/22 11:36:57;;;;;;;2.33;0.70;;;20.80;99.90;;;;;;4983146;28;20046;-76
2022/07/22 11:39:25;;;;;;;2.50;0.52;;;20.90;99.90;;;;;;4999162;28;20042;-76
2022/07/22 11:41:52;;;;;;;7.72;0.50;;;20.90;99.90;;;;;;4999094;28;20077;-75
2022/07/22 11:44:27;;;;;;;7.75;0.73;;;20.90;99.90;;;;;;4999183;28;20100;-75
2022/07/22 11:46:58;;;;;;;2.72;0.90;;;20.90;99.90;;;;;;5016602;28;20038;-75
2022/07/22 11:49:25;;;;;;;5.38;0.55;;;20.80;99.90;;;;;;5016393;28;20049;-75
2022/07/22 11:51:52;;;;;;;3.60;0.60;;;20.90;99.90;;;;;;5031900;28;20050;-75
2022/07/22 11:54:18;;;;;;;7.72;1.15;;;21.10;99.90;;;;;;5016531;28;20042;-76
2022/07/22 11:56:43;;;;;;;2.72;0.52;;;21.30;99.90;;;;;;4999213;28;20042;-75
2022/07/22 11:59:14;;;;;;;1.77;0.70;;;21.40;99.90;;;;;;5016472;28;20304;-75
2022/07/22 12:01:40;;;;;;;3.40;0.70;;;21.30;99.90;;;;;;5016384;28;20045;-75
2022/07/22 12:04:11;;;;;;;3.40;0.70;;;21.10;99.90;;;;;;5016398;28;20465;-75
2022/07/22 12:06:40;;;;;;;2.63;0.40;;;21.00;99.90;;;;;;5016508;28;20045;-75
2022/07/22 12:09:15;;;;;;;2.28;0.35;;;21.20;99.90;;;;;;5016395;28;20038;-76
2022/07/22 12:11:46;;;;;;;5.05;0.50;;;21.40;99.90;;;;;;5016179;28;20037;-76
2022/07/22 12:14:17;;;;;;;1.38;0.40;;;21.50;99.90;;;;;;4999193;28;20037;-76
2022/07/22 12:17:03;;;;;;;3.55;0.40;;;21.60;99.90;;;;;;5016577;28;20029;-76
2022/07/22 12:19:31;;;;;;;2.37;0.53;;;21.80;99.90;;;;;;4999202;28;20433;-75
2022/07/22 12:22:08;;;;;;;2.25;0.22;;;22.00;99.90;;;;;;4999109;28;20125;-75
2022/07/22 12:24:44;;;;;;;4.78;0.55;;;22.10;99.90;;;;;;5016382;28;20038;-75
2022/07/22 12:27:14;;;;;;;3.23;0.43;;;22.10;99.90;;;;;;5018741;28;20049;-76
2022/07/22 12:29:40;;;;;;;4.38;0.50;;;22.20;99.90;;;;;;5019779;28;20049;-75
2022/07/22 12:32:23;;;;;;;2.25;0.30;;;22.20;99.90;;;;;;5002553;28;20427;-75
2022/07/22 12:35:04;;;;;;;2.83;0.50;;;22.10;99.90;;;;;;5002327;28;20046;-76
2022/07/22 12:37:44;;;;;;;5.97;0.50;;;22.10;99.90;;;;;;5019628;28;20121;-75
2022/07/22 12:40:15;;;;;;;2.67;0.40;;;22.00;99.90;;;;;;5019623;28;20052;-76
2022/07/22 12:42:44;;;;;;;6.68;0.55;;;22.00;99.90;;;;;;5002124;28;20064;-75
2022/07/22 12:45:14;;;;;;;5.90;0.50;;;21.70;99.90;;;;;;5019601;28;20125;-75